Time;durP1;ratioP1;P1;durP2;ratioP2;P2;SDS_P1;SDS_P2;PMS_P1;PMS_P2;Temp;Humidity;BMP_temperature;BMP_pressure;BME280_temperature;BME280_humidity;BME280_pressure;Samples;Min_cycle;Max_cycle;Signal;HPM_P1;HPM_P2
2022/09/10 00:01:46;;;;;;;2.10;1.90;;;;;;;;;;4936095;28;20608;-74
2022/09/10 00:04:13;;;;;;;1.90;1.80;;;;;;;;;;4954152;28;20236;-74
2022/09/10 00:06:41;;;;;;;2.53;1.93;;;;;;;;;;4921488;29;20226;-74
2022/09/10 00:09:07;;;;;;;1.83;1.73;;;;;;;;;;4929311;28;20286;-75
2022/09/10 00:11:37;;;;;;;2.17;1.98;;;;;;;;;;4944148;28;20223;-75
2022/09/10 00:14:05;;;;;;;1.97;1.77;;;;;;;;;;4929378;28;20231;-75
2022/09/10 00:16:35;;;;;;;2.20;1.63;;;;;;;;;;4929495;28;20231;-74
2022/09/10 00:19:03;;;;;;;2.50;1.70;;;;;;;;;;4944848;28;20230;-74
2022/09/10 00:21:28;;;;;;;2.10;1.60;;;;;;;;;;4934008;28;20768;-75
2022/09/10 00:24:00;;;;;;;2.40;1.70;;;;;;;;;;4943908;28;20223;-75
2022/09/10 00:26:29;;;;;;;1.80;1.70;;;;;;;;;;4939531;28;20223;-74
2022/09/10 00:28:55;;;;;;;1.80;1.70;;;;;;;;;;4931386;28;20713;-73
2022/09/10 00:31:23;;;;;;;2.10;1.87;;;;;;;;;;4949537;28;20295;-74
2022/09/10 00:33:49;;;;;;;3.33;1.97;;;;;;;;;;4930188;28;20219;-74
2022/09/10 00:36:20;;;;;;;3.33;1.85;;;;;;;;;;4922737;28;20231;-74
2022/09/10 00:38:49;;;;;;;2.00;1.90;;;;;;;;;;4944378;28;20615;-73
2022/09/10 00:41:17;;;;;;;2.23;1.93;;;;;;;;;;4927494;28;20242;-74
2022/09/10 00:43:56;;;;;;;2.43;2.13;;;;;;;;;;4942086;28;20231;-73
2022/09/10 00:46:28;;;;;;;1.97;1.83;;;;;;;;;;4930154;28;20226;-73
2022/09/10 00:48:57;;;;;;;2.00;1.90;;;;;;;;;;4953726;28;20242;-74
2022/09/10 00:51:29;;;;;;;1.87;1.77;;;;;;;;;;4928011;28;20231;-74
2022/09/10 00:53:55;;;;;;;4.60;2.00;;;;;;;;;;4927345;28;20234;-73
2022/09/10 00:56:25;;;;;;;3.40;2.38;;;;;;;;;;4929361;28;20231;-74
2022/09/10 00:58:51;;;;;;;2.50;2.30;;;;;;;;;;4942965;28;20234;-74
2022/09/10 01:01:21;;;;;;;2.20;2.00;;;;;;;;;;4934700;28;20803;-74
2022/09/10 01:03:51;;;;;;;1.90;1.80;;;;;;;;;;4910382;29;20230;-74
2022/09/10 01:06:19;;;;;;;2.13;1.90;;;;;;;;;;4932742;28;20222;-74
2022/09/10 01:08:44;;;;;;;3.77;2.20;;;;;;;;;;4932491;28;20850;-74
2022/09/10 01:11:50;;;;;;;2.10;1.90;;;;;;;;;;4944836;28;20237;-74
2022/09/10 01:14:53;;;;;;;2.30;2.10;;;;;;;;;;4923920;28;20684;-74
2022/09/10 01:17:56;;;;;;;2.63;2.30;;;;;;;;;;4950649;28;21040;-74
2022/09/10 01:20:46;;;;;;;2.20;2.00;;;;;;;;;;4940744;28;20218;-74
2022/09/10 01:23:32;;;;;;;2.17;1.97;;;;;;;;;;4942427;28;20235;-74
2022/09/10 01:26:10;;;;;;;3.80;2.37;;;;;;;;;;4944136;28;20757;-74
2022/09/10 01:29:00;;;;;;;1.80;1.70;;;;;;;;;;4956948;28;20672;-74
2022/09/10 01:31:32;;;;;;;2.30;2.10;;;;;;;;;;4930722;28;20286;-74
2022/09/10 01:34:09;;;;;;;2.50;2.10;;;;;;;;;;4949174;28;20282;-74
2022/09/10 01:36:37;;;;;;;2.03;1.90;;;;;;;;;;4937743;28;20223;-74
2022/09/10 01:39:10;;;;;;;2.40;2.20;;;;;;;;;;4945269;28;20633;-75
2022/09/10 01:41:38;;;;;;;2.67;2.25;;;;;;;;;;4926911;29;20333;-74
2022/09/10 01:44:09;;;;;;;3.63;2.47;;;;;;;;;;4932216;28;20259;-73
2022/09/10 01:46:50;;;;;;;3.27;2.57;;;;;;;;;;4933107;28;20219;-75
2022/09/10 01:49:41;;;;;;;4.97;2.53;;;;;;;;;;4942606;28;20606;-75
2022/09/10 01:52:27;;;;;;;2.63;2.43;;;;;;;;;;4946394;28;20307;-73
2022/09/10 01:55:09;;;;;;;4.27;2.47;;;;;;;;;;4932559;28;20235;-74
2022/09/10 01:57:41;;;;;;;3.50;2.67;;;;;;;;;;4946024;28;20254;-75
2022/09/10 02:00:08;;;;;;;3.57;2.60;;;;;;;;;;4928823;28;20267;-75
2022/09/10 02:02:49;;;;;;;4.33;2.70;;;;;;;;;;4937886;28;20231;-74
2022/09/10 02:05:19;;;;;;;2.70;2.42;;;;;;;;;;4954074;28;20331;-75
2022/09/10 02:07:53;;;;;;;3.83;2.43;;;;;;;;;;4932925;28;20223;-74
2022/09/10 02:10:19;;;;;;;3.03;2.70;;;;;;;;;;4946224;28;20227;-74
2022/09/10 02:12:47;;;;;;;3.10;2.60;;;;;;;;;;4937406;28;20597;-75
2022/09/10 02:15:28;;;;;;;2.70;2.50;;;;;;;;;;4947910;28;20238;-74
2022/09/10 02:18:19;;;;;;;4.43;2.57;;;;;;;;;;4933569;28;20235;-75
2022/09/10 02:20:50;;;;;;;2.35;2.13;;;;;;;;;;4932333;28;20709;-74
2022/09/10 02:23:20;;;;;;;5.57;2.73;;;;;;;;;;4929888;28;20306;-74
2022/09/10 02:25:48;;;;;;;2.90;2.60;;;;;;;;;;4927622;28;20235;-75
2022/09/10 02:28:18;;;;;;;3.00;2.70;;;;;;;;;;4923506;28;20239;-75
2022/09/10 02:30:48;;;;;;;3.83;3.13;;;;;;;;;;4931905;28;20248;-75
2022/09/10 02:33:17;;;;;;;4.50;3.00;;;;;;;;;;4929174;28;20227;-74
2022/09/10 02:35:43;;;;;;;3.23;2.87;;;;;;;;;;4941277;28;20643;-74
2022/09/10 02:38:09;;;;;;;3.20;2.90;;;;;;;;;;4941292;28;20370;-75
2022/09/10 02:40:35;;;;;;;2.97;2.77;;;;;;;;;;4932993;29;20313;-74
2022/09/10 02:43:03;;;;;;;3.40;3.03;;;;;;;;;;4920949;28;20277;-74
2022/09/10 02:45:35;;;;;;;3.60;2.60;;;;;;;;;;4924455;29;20382;-74
2022/09/10 02:48:05;;;;;;;3.87;2.97;;;;;;;;;;4931568;28;20243;-74
2022/09/10 02:50:37;;;;;;;3.10;2.80;;;;;;;;;;4946674;28;20223;-74
2022/09/10 02:53:04;;;;;;;2.97;2.78;;;;;;;;;;4931749;28;20233;-75
2022/09/10 02:55:32;;;;;;;3.53;3.22;;;;;;;;;;4930881;28;20750;-74
2022/09/10 02:58:02;;;;;;;3.77;3.23;;;;;;;;;;4956759;28;20960;-74
2022/09/10 03:00:30;;;;;;;3.03;2.83;;;;;;;;;;4939123;29;20231;-75
2022/09/10 03:02:58;;;;;;;3.20;2.87;;;;;;;;;;4954732;28;20227;-74
2022/09/10 03:05:26;;;;;;;3.17;2.97;;;;;;;;;;4943201;28;20219;-75
2022/09/10 03:07:56;;;;;;;3.38;3.10;;;;;;;;;;4946807;28;20793;-74
2022/09/10 03:10:28;;;;;;;2.53;2.33;;;;;;;;;;4930126;28;20231;-75
2022/09/10 03:12:56;;;;;;;4.63;2.78;;;;;;;;;;4930506;28;20315;-75
2022/09/10 03:15:24;;;;;;;2.90;2.67;;;;;;;;;;4944619;28;20227;-75
2022/09/10 03:17:57;;;;;;;2.97;2.78;;;;;;;;;;4929068;29;20231;-74
2022/09/10 03:20:24;;;;;;;3.30;3.10;;;;;;;;;;4941801;28;20227;-74
2022/09/10 03:22:52;;;;;;;3.50;3.17;;;;;;;;;;4914476;29;20396;-75
2022/09/10 03:25:21;;;;;;;3.47;2.87;;;;;;;;;;4940049;28;20310;-75
2022/09/10 03:27:47;;;;;;;4.55;3.05;;;;;;;;;;4944865;28;20224;-75
2022/09/10 03:30:14;;;;;;;2.80;2.60;;;;;;;;;;4940282;28;20227;-75
2022/09/10 03:32:40;;;;;;;3.00;2.63;;;;;;;;;;4929529;29;20243;-75
2022/09/10 03:35:08;;;;;;;4.03;2.72;;;;;;;;;;4917914;28;20700;-75
2022/09/10 03:37:36;;;;;;;3.70;2.88;;;;;;;;;;4930763;28;20265;-75
2022/09/10 03:40:02;;;;;;;3.65;3.00;;;;;;;;;;4924160;28;20227;-74
2022/09/10 03:42:27;;;;;;;3.27;2.93;;;;;;;;;;4927755;28;20225;-75
2022/09/10 03:44:55;;;;;;;3.50;3.20;;;;;;;;;;4938540;28;20230;-75
2022/09/10 03:47:23;;;;;;;3.33;3.03;;;;;;;;;;4940038;28;20236;-75
2022/09/10 03:49:52;;;;;;;4.07;3.38;;;;;;;;;;4929046;28;20666;-75
2022/09/10 03:52:17;;;;;;;3.60;3.08;;;;;;;;;;4941170;28;20840;-73
2022/09/10 03:54:46;;;;;;;3.58;3.20;;;;;;;;;;4929260;28;20214;-73
2022/09/10 03:57:17;;;;;;;3.50;3.20;;;;;;;;;;4943492;28;20232;-75
2022/09/10 03:59:43;;;;;;;3.50;3.20;;;;;;;;;;4918040;28;20282;-74
2022/09/10 04:02:10;;;;;;;4.03;3.67;;;;;;;;;;4916280;28;20218;-74
2022/09/10 04:04:38;;;;;;;3.55;3.30;;;;;;;;;;4926173;28;20309;-73
2022/09/10 04:07:09;;;;;;;3.50;3.17;;;;;;;;;;4942629;28;20222;-74
2022/09/10 04:09:36;;;;;;;3.60;3.30;;;;;;;;;;4941438;28;20255;-75
2022/09/10 04:12:02;;;;;;;6.03;3.63;;;;;;;;;;4947046;28;20227;-74
2022/09/10 04:14:33;;;;;;;4.63;2.95;;;;;;;;;;4929777;28;20226;-74
2022/09/10 04:16:59;;;;;;;4.32;3.47;;;;;;;;;;4929563;28;20239;-74
2022/09/10 04:19:26;;;;;;;3.80;3.50;;;;;;;;;;4939035;28;20335;-75
2022/09/10 04:21:55;;;;;;;3.60;3.30;;;;;;;;;;4923479;29;20219;-74
2022/09/10 04:24:22;;;;;;;3.67;3.30;;;;;;;;;;4921538;28;20226;-74
2022/09/10 04:26:50;;;;;;;4.80;3.23;;;;;;;;;;4953913;28;20215;-75
2022/09/10 04:29:21;;;;;;;3.15;2.95;;;;;;;;;;4927210;28;20898;-74
2022/09/10 04:31:47;;;;;;;3.25;3.00;;;;;;;;;;4939939;28;20223;-75
2022/09/10 04:34:18;;;;;;;3.55;3.17;;;;;;;;;;4927714;28;20227;-74
2022/09/10 04:36:43;;;;;;;4.30;3.20;;;;;;;;;;4935592;28;20234;-74
2022/09/10 04:39:13;;;;;;;3.83;3.37;;;;;;;;;;4937354;28;20232;-74
2022/09/10 04:41:38;;;;;;;4.35;3.28;;;;;;;;;;4954234;28;20246;-74
2022/09/10 04:44:05;;;;;;;3.47;3.17;;;;;;;;;;4929317;28;20654;-75
2022/09/10 04:46:34;;;;;;;3.05;2.80;;;;;;;;;;4923415;29;20231;-74
2022/09/10 04:49:06;;;;;;;3.70;3.30;;;;;;;;;;4919719;28;21068;-74
2022/09/10 04:51:34;;;;;;;3.05;2.83;;;;;;;;;;4913423;29;20253;-75
2022/09/10 04:54:00;;;;;;;2.97;2.78;;;;;;;;;;4930511;29;20226;-75
2022/09/10 04:56:33;;;;;;;3.05;2.80;;;;;;;;;;4940819;28;20816;-75
2022/09/10 04:59:04;;;;;;;4.20;3.13;;;;;;;;;;4913541;29;20272;-75
2022/09/10 05:01:35;;;;;;;3.72;3.38;;;;;;;;;;4928324;28;20229;-75
2022/09/10 05:04:02;;;;;;;3.33;3.08;;;;;;;;;;4931058;29;20913;-74
2022/09/10 05:06:31;;;;;;;3.40;3.10;;;;;;;;;;4930111;28;20608;-75
2022/09/10 05:08:59;;;;;;;3.53;3.22;;;;;;;;;;4943919;28;21054;-74
2022/09/10 05:11:30;;;;;;;3.85;3.55;;;;;;;;;;4929699;28;20224;-73
2022/09/10 05:13:57;;;;;;;3.88;3.28;;;;;;;;;;4935396;28;20228;-74
2022/09/10 05:16:26;;;;;;;3.95;2.95;;;;;;;;;;4951028;28;20238;-74
2022/09/10 05:18:55;;;;;;;6.10;3.33;;;;;;;;;;4914003;29;20227;-74
2022/09/10 05:21:26;;;;;;;4.33;3.20;;;;;;;;;;4927851;28;20223;-74
2022/09/10 05:23:54;;;;;;;4.13;3.20;;;;;;;;;;4930572;28;20250;-74
2022/09/10 05:26:21;;;;;;;3.22;2.95;;;;;;;;;;4939717;28;20230;-74
2022/09/10 05:28:50;;;;;;;3.00;2.72;;;;;;;;;;4938359;28;20240;-74
2022/09/10 05:31:16;;;;;;;3.70;2.70;;;;;;;;;;4922922;28;20234;-74
2022/09/10 05:33:42;;;;;;;4.57;2.90;;;;;;;;;;4925456;29;20246;-74
2022/09/10 05:36:10;;;;;;;4.45;3.00;;;;;;;;;;4945544;28;20226;-74
2022/09/10 05:38:38;;;;;;;2.63;2.42;;;;;;;;;;4928916;28;20613;-74
2022/09/10 05:41:05;;;;;;;3.40;2.53;;;;;;;;;;4926319;28;20223;-73
2022/09/10 05:43:31;;;;;;;2.38;2.17;;;;;;;;;;4935077;28;20751;-72
2022/09/10 05:46:00;;;;;;;3.27;2.33;;;;;;;;;;4929162;28;20497;-74
2022/09/10 05:48:26;;;;;;;3.37;3.00;;;;;;;;;;4928080;28;20290;-73
2022/09/10 05:50:51;;;;;;;3.17;2.80;;;;;;;;;;4948024;28;20224;-74
2022/09/10 05:53:17;;;;;;;3.08;2.70;;;;;;;;;;4910151;28;20227;-73
2022/09/10 05:55:45;;;;;;;3.03;2.78;;;;;;;;;;4929574;29;20309;-73
2022/09/10 05:58:12;;;;;;;3.35;2.63;;;;;;;;;;4947827;28;20281;-75
2022/09/10 06:00:44;;;;;;;3.53;3.10;;;;;;;;;;4933014;29;20223;-73
2022/09/10 06:03:10;;;;;;;3.17;2.88;;;;;;;;;;4938348;28;20230;-71
2022/09/10 06:05:50;;;;;;;3.72;3.10;;;;;;;;;;4925775;28;20723;-74
2022/09/10 06:08:17;;;;;;;3.10;2.80;;;;;;;;;;4931073;28;20235;-74
2022/09/10 06:11:03;;;;;;;4.65;2.85;;;;;;;;;;4931793;28;20237;-73
2022/09/10 06:13:37;;;;;;;3.15;2.88;;;;;;;;;;4941145;28;20776;-74
2022/09/10 06:16:03;;;;;;;2.90;2.67;;;;;;;;;;4948108;28;20611;-73
2022/09/10 06:18:32;;;;;;;3.15;2.85;;;;;;;;;;4937068;28;20259;-73
2022/09/10 06:21:18;;;;;;;3.47;2.90;;;;;;;;;;4940899;28;20712;-74
2022/09/10 06:23:46;;;;;;;2.88;2.67;;;;;;;;;;4915371;29;20263;-74
2022/09/10 06:26:17;;;;;;;3.78;2.60;;;;;;;;;;4948727;28;20223;-74
2022/09/10 06:28:43;;;;;;;3.13;2.83;;;;;;;;;;4947278;28;20321;-74
2022/09/10 06:31:13;;;;;;;3.72;2.90;;;;;;;;;;4935403;28;20227;-73
2022/09/10 06:33:41;;;;;;;3.40;2.80;;;;;;;;;;4932776;28;20274;-75
2022/09/10 06:36:10;;;;;;;3.00;2.75;;;;;;;;;;4928360;28;20249;-75
2022/09/10 06:38:35;;;;;;;4.95;3.28;;;;;;;;;;4931333;29;20770;-75
2022/09/10 06:41:04;;;;;;;3.28;3.08;;;;;;;;;;4938612;28;20219;-75
2022/09/10 06:43:40;;;;;;;4.93;2.90;;;;;;;;;;4928169;28;20247;-73
2022/09/10 06:46:15;;;;;;;3.60;3.30;;;;;;;;;;4931720;28;20270;-75
2022/09/10 06:48:50;;;;;;;4.40;3.45;;;;;;;;;;4939920;28;20238;-74
2022/09/10 06:51:18;;;;;;;5.10;3.28;;;;;;;;;;4924608;28;20215;-75
2022/09/10 06:53:47;;;;;;;3.88;3.47;;;;;;;;;;4938589;28;20228;-74
2022/09/10 06:56:20;;;;;;;5.40;3.55;;;;;;;;;;4926381;28;20254;-75
2022/09/10 06:58:45;;;;;;;4.18;3.28;;;;;;;;;;4930880;28;20314;-75
2022/09/10 07:01:17;;;;;;;3.90;3.53;;;;;;;;;;4944231;28;20226;-73
2022/09/10 07:03:52;;;;;;;4.00;3.60;;;;;;;;;;4929924;28;20592;-75
2022/09/10 07:06:18;;;;;;;4.20;3.42;;;;;;;;;;4936568;28;20317;-74
2022/09/10 07:08:46;;;;;;;3.70;3.40;;;;;;;;;;4957681;28;20789;-74
2022/09/10 07:11:17;;;;;;;5.05;3.28;;;;;;;;;;4943026;28;20212;-74
2022/09/10 07:13:48;;;;;;;3.90;3.60;;;;;;;;;;4925633;28;20226;-75
2022/09/10 07:16:20;;;;;;;4.22;3.85;;;;;;;;;;4930278;28;20231;-73
2022/09/10 07:18:53;;;;;;;6.43;4.32;;;;;;;;;;4928602;28;20233;-74
2022/09/10 07:21:21;;;;;;;4.55;4.15;;;;;;;;;;4927478;28;20226;-74
2022/09/10 07:23:50;;;;;;;4.53;3.88;;;;;;;;;;4925882;28;20223;-74
2022/09/10 07:26:18;;;;;;;5.65;4.40;;;;;;;;;;4938446;28;20692;-74
2022/09/10 07:28:51;;;;;;;5.15;4.75;;;;;;;;;;4920571;28;20686;-74
2022/09/10 07:31:26;;;;;;;5.43;4.90;;;;;;;;;;4925332;28;20234;-75
2022/09/10 07:33:53;;;;;;;6.05;4.95;;;;;;;;;;4942019;28;20227;-74
2022/09/10 07:36:24;;;;;;;5.78;4.93;;;;;;;;;;4915050;28;20248;-74
2022/09/10 07:39:00;;;;;;;6.03;5.45;;;;;;;;;;4931886;28;20230;-73
2022/09/10 07:41:30;;;;;;;6.65;6.05;;;;;;;;;;4944509;28;20227;-73
2022/09/10 07:43:58;;;;;;;5.90;5.43;;;;;;;;;;4945373;28;20223;-74
2022/09/10 07:46:31;;;;;;;5.97;5.38;;;;;;;;;;4922208;29;20219;-75
2022/09/10 07:49:00;;;;;;;5.50;5.05;;;;;;;;;;4945295;28;20272;-74
2022/09/10 07:51:28;;;;;;;7.63;5.88;;;;;;;;;;4929319;28;20341;-73
2022/09/10 07:53:58;;;;;;;5.45;4.82;;;;;;;;;;4914255;29;20253;-74
2022/09/10 07:56:30;;;;;;;5.05;4.65;;;;;;;;;;4911280;28;20231;-73
2022/09/10 07:58:56;;;;;;;5.00;4.53;;;;;;;;;;4956441;28;20815;-74
2022/09/10 08:01:27;;;;;;;7.10;4.95;;;;;;;;;;4933709;28;20716;-74
2022/09/10 08:03:57;;;;;;;6.03;4.90;;;;;;;;;;4933366;28;20227;-76
2022/09/10 08:06:26;;;;;;;4.82;4.43;;;;;;;;;;4919754;28;20223;-74
2022/09/10 08:08:52;;;;;;;5.80;4.70;;;;;;;;;;4946523;28;20241;-74
2022/09/10 08:11:19;;;;;;;5.22;4.03;;;;;;;;;;4945266;28;20218;-74
2022/09/10 08:13:49;;;;;;;4.82;4.38;;;;;;;;;;4925197;29;20222;-76
2022/09/10 08:16:21;;;;;;;4.53;4.10;;;;;;;;;;4923578;28;20227;-76
2022/09/10 08:18:59;;;;;;;5.75;4.30;;;;;;;;;;4937963;28;20234;-75
2022/09/10 08:21:28;;;;;;;5.30;3.97;;;;;;;;;;4921670;28;20222;-76
2022/09/10 08:23:59;;;;;;;4.95;3.72;;;;;;;;;;4942129;28;20247;-76
2022/09/10 08:26:28;;;;;;;5.20;3.80;;;;;;;;;;4938492;28;20247;-76
2022/09/10 08:28:57;;;;;;;4.88;3.85;;;;;;;;;;4938176;28;20239;-75
2022/09/10 08:31:25;;;;;;;4.75;3.30;;;;;;;;;;4924073;28;20307;-75
2022/09/10 08:33:56;;;;;;;4.70;3.78;;;;;;;;;;4926019;28;20254;-74
2022/09/10 08:36:30;;;;;;;3.78;3.20;;;;;;;;;;4939370;28;20270;-74
2022/09/10 08:38:56;;;;;;;4.45;3.28;;;;;;;;;;4929764;28;20728;-75
2022/09/10 08:41:40;;;;;;;3.53;3.00;;;;;;;;;;4942703;28;20219;-75
2022/09/10 08:44:38;;;;;;;6.28;3.50;;;;;;;;;;4940854;28;20701;-74
2022/09/10 08:47:24;;;;;;;3.83;2.90;;;;;;;;;;4953753;28;20235;-74
2022/09/10 08:49:59;;;;;;;3.38;2.67;;;;;;;;;;4953748;28;20234;-75
2022/09/10 08:52:44;;;;;;;2.95;2.72;;;;;;;;;;4908834;28;21071;-75
2022/09/10 08:55:22;;;;;;;2.70;2.50;;;;;;;;;;4935310;28;20616;-76
2022/09/10 08:57:48;;;;;;;6.43;3.55;;;;;;;;;;4928644;28;20243;-78
2022/09/10 09:00:22;;;;;;;3.97;2.60;;;;;;;;;;4936898;28;20740;-75
2022/09/10 09:03:19;;;;;;;3.45;2.75;;;;;;;;;;4931601;28;20223;-74
2022/09/10 09:05:52;;;;;;;3.65;2.33;;;;;;;;;;4937955;28;20227;-75
2022/09/10 09:08:20;;;;;;;4.25;2.20;;;;;;;;;;4924691;28;20219;-76
2022/09/10 09:11:09;;;;;;;4.25;2.28;;;;;;;;;;4930576;29;20231;-76
2022/09/10 09:13:38;;;;;;;2.78;2.25;;;;;;;;;;4928175;29;20223;-71
2022/09/10 09:16:06;;;;;;;2.80;2.35;;;;;;;;;;4950735;28;20231;-74
2022/09/10 09:18:53;;;;;;;4.70;2.20;;;;;;;;;;4937275;28;20269;-74
2022/09/10 09:21:41;;;;;;;3.15;2.13;;;;;;;;;;4952186;28;20330;-74
2022/09/10 09:24:25;;;;;;;3.45;2.30;;;;;;;;;;4938917;28;20242;-74
2022/09/10 09:27:00;;;;;;;8.40;2.50;;;;;;;;;;4959640;28;20223;-75
2022/09/10 09:29:33;;;;;;;3.67;2.15;;;;;;;;;;4946911;28;20231;-73
2022/09/10 09:32:02;;;;;;;2.20;2.10;;;;;;;;;;4942984;28;20262;-74
2022/09/10 09:34:39;;;;;;;4.25;2.42;;;;;;;;;;4934788;29;20230;-75
2022/09/10 09:37:20;;;;;;;2.30;2.10;;;;;;;;;;4934298;28;20234;-73
2022/09/10 09:40:03;;;;;;;2.67;2.20;;;;;;;;;;4944952;28;20227;-73
2022/09/10 09:42:55;;;;;;;2.25;2.05;;;;;;;;;;4947200;28;20230;-73
2022/09/10 09:45:42;;;;;;;3.90;2.28;;;;;;;;;;4942669;28;20227;-75
2022/09/10 09:48:13;;;;;;;3.40;3.10;;;;;;;;;;4947607;28;20235;-74
2022/09/10 09:50:49;;;;;;;3.35;2.78;;;;;;;;;;4943734;28;20305;-74
2022/09/10 09:53:26;;;;;;;3.00;2.28;;;;;;;;;;4951994;28;20235;-75
2022/09/10 09:55:59;;;;;;;3.10;2.15;;;;;;;;;;4939513;28;20229;-75
2022/09/10 09:58:29;;;;;;;6.20;2.70;;;;;;;;;;4941112;28;20223;-74
2022/09/10 10:01:03;;;;;;;3.90;2.80;;;;;;;;;;4922256;29;20224;-73
2022/09/10 10:03:32;;;;;;;3.88;2.60;;;;;;;;;;4942471;28;20257;-74
2022/09/10 10:06:07;;;;;;;2.85;2.60;;;;;;;;;;4938869;28;20234;-73
2022/09/10 10:08:36;;;;;;;4.07;2.42;;;;;;;;;;4931212;28;20313;-73
2022/09/10 10:11:02;;;;;;;4.90;2.70;;;;;;;;;;4957671;28;20230;-73
2022/09/10 10:13:41;;;;;;;3.20;2.67;;;;;;;;;;4921164;28;20228;-73
2022/09/10 10:16:20;;;;;;;3.28;2.92;;;;;;;;;;4930983;28;20660;-74
2022/09/10 10:18:48;;;;;;;3.35;2.60;;;;;;;;;;4947408;28;20297;-74
2022/09/10 10:21:18;;;;;;;4.45;2.63;;;;;;;;;;4918134;28;20250;-74
2022/09/10 10:23:44;;;;;;;2.78;2.45;;;;;;;;;;4960337;28;20603;-75
2022/09/10 10:26:17;;;;;;;3.42;2.30;;;;;;;;;;4939675;28;20230;-74
2022/09/10 10:29:06;;;;;;;3.17;2.58;;;;;;;;;;4938557;28;20696;-73
2022/09/10 10:31:42;;;;;;;2.92;2.38;;;;;;;;;;4948242;28;20219;-74
2022/09/10 10:34:13;;;;;;;3.05;2.00;;;;;;;;;;4931939;28;20810;-74
2022/09/10 10:37:28;;;;;;;2.75;2.00;;;;;;;;;;4940046;28;20721;-74
2022/09/10 10:40:15;;;;;;;1.90;1.60;;;;;;;;;;4913401;28;20251;-73
2022/09/10 10:42:53;;;;;;;2.88;2.20;;;;;;;;;;4955713;28;20225;-74
2022/09/10 10:45:37;;;;;;;2.33;2.10;;;;;;;;;;4936188;28;20230;-73
2022/09/10 10:48:28;;;;;;;4.25;2.00;;;;;;;;;;4955846;28;20609;-75
2022/09/10 10:50:58;;;;;;;2.45;2.22;;;;;;;;;;4954293;28;20249;-73
2022/09/10 10:53:30;;;;;;;2.90;2.15;;;;;;;;;;4930939;28;20590;-73
2022/09/10 10:56:19;;;;;;;3.45;1.92;;;;;;;;;;4939176;28;20711;-74
2022/09/10 10:59:04;;;;;;;2.53;1.67;;;;;;;;;;4948338;28;20235;-73
2022/09/10 11:01:33;;;;;;;2.17;1.75;;;;;;;;;;4935162;28;20227;-74
2022/09/10 11:04:18;;;;;;;1.80;1.70;;;;;;;;;;4957376;28;20285;-75
2022/09/10 11:06:45;;;;;;;1.70;1.60;;;;;;;;;;4937734;28;20320;-73
2022/09/10 11:09:26;;;;;;;2.30;1.60;;;;;;;;;;4931131;28;20239;-73
2022/09/10 11:11:56;;;;;;;2.20;1.48;;;;;;;;;;4941937;28;20612;-74
2022/09/10 11:14:27;;;;;;;3.55;1.40;;;;;;;;;;4942180;28;20290;-74
2022/09/10 11:16:58;;;;;;;3.55;1.83;;;;;;;;;;4947112;28;20384;-73
2022/09/10 11:19:34;;;;;;;3.25;1.77;;;;;;;;;;4914562;28;20224;-74
2022/09/10 11:22:20;;;;;;;2.67;1.70;;;;;;;;;;4957948;28;20238;-75
2022/09/10 11:24:49;;;;;;;1.70;1.42;;;;;;;;;;4934127;28;20219;-74
2022/09/10 11:27:26;;;;;;;1.65;1.55;;;;;;;;;;4945293;28;20831;-75
2022/09/10 11:29:56;;;;;;;1.50;1.40;;;;;;;;;;4936036;28;20227;-74
2022/09/10 11:32:25;;;;;;;2.67;1.50;;;;;;;;;;4937206;28;20242;-74
2022/09/10 11:35:03;;;;;;;1.90;1.67;;;;;;;;;;4941392;28;20219;-74
2022/09/10 11:37:39;;;;;;;2.00;1.83;;;;;;;;;;4945057;28;20690;-72
2022/09/10 11:40:12;;;;;;;1.98;1.40;;;;;;;;;;4943851;28;20262;-73
2022/09/10 11:42:43;;;;;;;1.73;1.20;;;;;;;;;;4946602;28;20230;-73
2022/09/10 11:45:35;;;;;;;1.92;1.10;;;;;;;;;;4928177;28;20228;-73
2022/09/10 11:48:07;;;;;;;2.00;1.00;;;;;;;;;;4928900;29;20243;-74
2022/09/10 11:50:37;;;;;;;1.35;1.05;;;;;;;;;;4915243;29;20697;-75
2022/09/10 11:53:07;;;;;;;1.48;1.05;;;;;;;;;;4935937;28;20756;-74
2022/09/10 11:55:44;;;;;;;2.05;1.33;;;;;;;;;;4930934;28;20277;-72
2022/09/10 11:58:58;;;;;;;1.60;1.33;;;;;;;;;;4916054;28;20227;-74
2022/09/10 12:01:50;;;;;;;1.50;1.40;;;;;;;;;;4935047;28;20234;-74
2022/09/10 12:04:24;;;;;;;1.20;1.10;;;;;;;;;;4946038;28;20236;-74
2022/09/10 12:07:30;;;;;;;2.80;1.08;;;;;;;;;;4948302;28;20713;-74
2022/09/10 12:10:30;;;;;;;2.25;1.23;;;;;;;;;;4936997;28;20235;-75
2022/09/10 12:12:57;;;;;;;4.72;1.38;;;;;;;;;;4950542;28;21156;-73
2022/09/10 12:15:35;;;;;;;2.00;1.38;;;;;;;;;;4924278;28;20681;-73
2022/09/10 12:18:13;;;;;;;1.40;1.30;;;;;;;;;;4924714;28;20243;-74
2022/09/10 12:20:58;;;;;;;2.30;1.30;;;;;;;;;;4938524;28;20222;-75
2022/09/10 12:23:35;;;;;;;1.67;1.58;;;;;;;;;;4936391;28;20227;-73
2022/09/10 12:26:09;;;;;;;1.63;1.40;;;;;;;;;;4938218;28;20252;-74
2022/09/10 12:28:40;;;;;;;1.98;1.40;;;;;;;;;;4933973;28;20322;-73
2022/09/10 12:31:09;;;;;;;2.40;1.60;;;;;;;;;;4939967;28;20298;-74
2022/09/10 12:33:35;;;;;;;2.70;1.40;;;;;;;;;;4943569;28;20230;-73
2022/09/10 12:36:02;;;;;;;1.92;1.50;;;;;;;;;;4937764;28;20310;-75
2022/09/10 12:39:05;;;;;;;1.88;1.35;;;;;;;;;;4930470;28;20230;-74
2022/09/10 12:41:30;;;;;;;1.40;1.30;;;;;;;;;;4951172;28;20651;-74
2022/09/10 12:43:57;;;;;;;2.90;1.50;;;;;;;;;;4935915;28;20239;-75
2022/09/10 12:46:24;;;;;;;1.40;1.13;;;;;;;;;;4952526;28;20318;-75
2022/09/10 12:48:50;;;;;;;3.83;1.33;;;;;;;;;;4929440;29;20235;-74
2022/09/10 12:51:16;;;;;;;1.13;1.00;;;;;;;;;;4927124;28;20223;-74
2022/09/10 12:54:04;;;;;;;1.23;1.13;;;;;;;;;;4940275;28;20799;-75
2022/09/10 12:56:56;;;;;;;1.80;1.50;;;;;;;;;;4939153;28;20231;-74
2022/09/10 12:59:55;;;;;;;1.30;1.20;;;;;;;;;;4918242;28;21845;-75
2022/09/10 13:02:26;;;;;;;2.22;1.20;;;;;;;;;;4945048;28;20765;-73
2022/09/10 13:04:53;;;;;;;1.50;1.30;;;;;;;;;;4943976;28;20227;-74
2022/09/10 13:07:23;;;;;;;3.50;1.30;;;;;;;;;;4931416;28;20226;-74
2022/09/10 13:10:24;;;;;;;1.60;1.48;;;;;;;;;;4940008;28;20219;-74
2022/09/10 13:12:58;;;;;;;2.92;1.60;;;;;;;;;;4935507;28;20250;-74
2022/09/10 13:15:29;;;;;;;2.28;1.40;;;;;;;;;;4927295;28;20259;-74
2022/09/10 13:17:58;;;;;;;1.25;1.15;;;;;;;;;;4928926;29;20230;-74
2022/09/10 13:20:23;;;;;;;3.45;1.50;;;;;;;;;;4942850;28;20801;-74
2022/09/10 13:23:02;;;;;;;1.38;1.27;;;;;;;;;;4942210;28;20311;-75
2022/09/10 13:25:39;;;;;;;2.15;1.30;;;;;;;;;;4955675;28;20277;-74
2022/09/10 13:28:29;;;;;;;1.55;1.40;;;;;;;;;;4939703;28;20224;-75
2022/09/10 13:31:09;;;;;;;1.92;1.60;;;;;;;;;;4942513;28;20266;-74
2022/09/10 13:33:53;;;;;;;1.88;1.70;;;;;;;;;;4941670;28;20325;-73
2022/09/10 13:36:58;;;;;;;1.98;1.70;;;;;;;;;;4938791;28;20223;-74
2022/09/10 13:39:24;;;;;;;1.55;1.45;;;;;;;;;;4943807;28;20219;-73
2022/09/10 13:42:02;;;;;;;2.03;1.30;;;;;;;;;;4945859;28;20269;-75
2022/09/10 13:44:46;;;;;;;1.67;1.50;;;;;;;;;;4933493;29;20250;-75
2022/09/10 13:47:14;;;;;;;1.60;1.50;;;;;;;;;;4955585;28;20215;-74
2022/09/10 13:49:54;;;;;;;1.67;1.58;;;;;;;;;;4916784;29;20230;-75
2022/09/10 13:52:23;;;;;;;2.22;1.58;;;;;;;;;;4946893;28;20223;-74
2022/09/10 13:54:52;;;;;;;2.35;1.48;;;;;;;;;;4941237;28;20227;-74
2022/09/10 13:57:26;;;;;;;2.50;1.30;;;;;;;;;;4930795;28;20768;-73
2022/09/10 13:59:56;;;;;;;1.77;1.38;;;;;;;;;;4937323;28;20751;-74
2022/09/10 14:02:40;;;;;;;2.83;1.80;;;;;;;;;;4923753;28;20211;-74
2022/09/10 14:05:21;;;;;;;2.40;1.50;;;;;;;;;;4930006;28;20281;-74
2022/09/10 14:07:51;;;;;;;3.92;1.70;;;;;;;;;;4943731;28;20233;-75
2022/09/10 14:10:17;;;;;;;2.42;1.50;;;;;;;;;;4929864;28;20243;-75
2022/09/10 14:12:42;;;;;;;2.38;1.83;;;;;;;;;;4943604;28;20219;-74
2022/09/10 14:15:18;;;;;;;1.60;1.50;;;;;;;;;;4953336;28;20238;-75
2022/09/10 14:17:49;;;;;;;1.85;1.75;;;;;;;;;;4939013;28;20309;-74
2022/09/10 14:20:27;;;;;;;2.75;1.70;;;;;;;;;;4936903;28;20622;-74
2022/09/10 14:23:04;;;;;;;2.05;1.77;;;;;;;;;;4924556;28;20230;-73
2022/09/10 14:25:33;;;;;;;2.67;1.80;;;;;;;;;;4952640;28;20251;-74
2022/09/10 14:28:28;;;;;;;2.40;2.20;;;;;;;;;;4938310;28;20226;-74
2022/09/10 14:31:21;;;;;;;3.60;2.70;;;;;;;;;;4933842;28;20224;-74
2022/09/10 14:33:46;;;;;;;2.38;1.77;;;;;;;;;;4944539;28;20230;-73
2022/09/10 14:36:20;;;;;;;1.75;1.65;;;;;;;;;;4961759;28;20230;-73
2022/09/10 14:38:57;;;;;;;2.53;1.88;;;;;;;;;;4910726;29;20246;-73
2022/09/10 14:41:26;;;;;;;2.40;1.77;;;;;;;;;;4953902;28;20310;-74
2022/09/10 14:44:19;;;;;;;4.95;1.67;;;;;;;;;;4938628;28;20230;-74
2022/09/10 14:47:09;;;;;;;3.50;1.52;;;;;;;;;;4937569;28;20234;-74
2022/09/10 14:49:38;;;;;;;1.55;1.42;;;;;;;;;;4957719;28;20679;-75
2022/09/10 14:52:04;;;;;;;2.15;1.10;;;;;;;;;;4934776;28;20223;-74
2022/09/10 14:54:31;;;;;;;1.52;1.40;;;;;;;;;;4924210;28;20226;-74
2022/09/10 14:57:01;;;;;;;1.02;1.02;;;;;;;;;;4938936;28;20233;-74
2022/09/10 14:59:35;;;;;;;1.30;1.20;;;;;;;;;;4941678;28;20948;-73
2022/09/10 15:02:01;;;;;;;1.08;0.95;;;;;;;;;;4939251;28;20230;-73
2022/09/10 15:04:28;;;;;;;1.42;1.30;;;;;;;;;;4937974;28;20227;-73
2022/09/10 15:06:57;;;;;;;1.50;1.40;;;;;;;;;;4940816;28;20224;-73
2022/09/10 15:09:30;;;;;;;1.30;1.20;;;;;;;;;;4938648;28;20243;-77
2022/09/10 15:12:10;;;;;;;1.50;1.40;;;;;;;;;;4923189;29;20888;-76
2022/09/10 15:14:43;;;;;;;1.15;1.10;;;;;;;;;;4914487;29;20232;-72
2022/09/10 15:17:14;;;;;;;2.85;1.40;;;;;;;;;;4925401;28;20736;-73
2022/09/10 15:19:40;;;;;;;1.50;1.40;;;;;;;;;;4939301;28;20339;-73